PWSweather.com
Personal Weather Stations
Station Observations
ARECO747
Argentina , San Antonio ArecoAR Bs.As

Argentina San Antonio ArecoAR Bs.As

Lat: -34.24447275818, Lon: -59.47654187679

Elevation: 102

Station Type: InformaciĆ³n generada con nuevo Microchip Ethernet conectado a estaciĆ³n WH1081

http://www.meteostar.com.ar

Latest ConditionsUpdated 11:13:21 AM GMT-03:57 Monday, Jun 17, 2019
Currently Today's Max Today's Min Today's Average
Temperature 56.5°F13.6°C 59.4°F15.2°C 56.5°F13.6°C 58.2°F14.6°C
Dew Point 51.1°F10.6°C 53.6°F12.0°C 51.1°F10.6°C 52.7°F11.5°C
Winds 4.5 mph NW7.2 kmh NW 6.0 mph -9.7 kmh - - 2.2 mph 3.5 kmh
Wind Gusts 6.0 mph9.7 kmh 9.2 mph14.8 kmh - -
Humidity 82% 83% 81% 82%
Pressure 30.05 in1017.6 mb 30.11 in1019.6 mb 30.03 in1016.9 mb -
Precipitation - 0.25 in6.4 mm - -
Hour Temp Dew Point Humidity Winds Wind Gusts Pressure Precip Precip Rate Daily Precip Total
11:13 AM 56.5°F13.6°C 51.1°F10.6°C 82% 4.5 mph NW7.2 kmh NW 6.0 mph9.7 kmh 30.05 in1017.6 mb 0.06 in1.5 mm 0.00 in0.0 mm 0.25 in6.4 mm
11:08 AM 56.5°F13.6°C 51.1°F10.6°C 82% 3.8 mph NW6.1 kmh NW 6.0 mph9.7 kmh 30.06 in1017.9 mb 0.06 in1.5 mm 0.12 in3.0 mm 0.25 in6.4 mm
11:03 AM 56.5°F13.6°C 51.1°F10.6°C 82% 1.6 mph NW2.6 kmh NW 6.9 mph11.1 kmh 30.05 in1017.6 mb 0.05 in1.3 mm 0.00 in0.0 mm 0.24 in6.1 mm
10:57 AM 56.5°F13.6°C 51.4°F10.8°C 83% 3.1 mph NW5.0 kmh NW 6.9 mph11.1 kmh 30.05 in1017.6 mb 0.05 in1.3 mm 0.00 in0.0 mm 0.24 in6.1 mm
10:52 AM 56.7°F13.7°C 51.6°F10.9°C 83% 2.2 mph NW3.5 kmh NW 4.5 mph7.2 kmh 30.05 in1017.6 mb 0.05 in1.3 mm 0.12 in3.0 mm 0.24 in6.1 mm
10:47 AM 56.5°F13.6°C 51.4°F10.8°C 83% 2.2 mph NW3.5 kmh NW 4.5 mph7.2 kmh 30.04 in1017.3 mb 0.04 in1.0 mm 0.00 in0.0 mm 0.22 in5.6 mm
10:42 AM 56.5°F13.6°C 51.4°F10.8°C 83% 1.6 mph NW2.6 kmh NW 6.9 mph11.1 kmh 30.05 in1017.6 mb 0.04 in1.0 mm 0.24 in6.1 mm 0.22 in5.6 mm
10:37 AM 56.5°F13.6°C 51.4°F10.8°C 83% 5.4 mph NW8.7 kmh NW 8.3 mph13.4 kmh 30.06 in1017.9 mb 0.02 in0.5 mm 0.20 in5.1 mm 0.21 in5.3 mm
10:31 AM 56.5°F13.6°C 51.4°F10.8°C 83% 4.5 mph NW7.2 kmh NW 7.6 mph12.2 kmh 30.06 in1017.9 mb 0.00 in0.0 mm 0.00 in0.0 mm 0.19 in4.8 mm
10:26 AM 56.5°F13.6°C 51.4°F10.8°C 83% 3.1 mph W5.0 kmh W 6.9 mph11.1 kmh 30.05 in1017.6 mb 0.00 in0.0 mm 0.00 in0.0 mm 0.19 in4.8 mm
10:21 AM 56.7°F13.7°C 51.6°F10.9°C 83% 2.2 mph NW3.5 kmh NW 6.0 mph9.7 kmh 30.05 in1017.6 mb 0.00 in0.0 mm 0.00 in0.0 mm 0.19 in4.8 mm
10:16 AM 56.7°F13.7°C 51.6°F10.9°C 83% 2.2 mph W3.5 kmh W 6.0 mph9.7 kmh 30.05 in1017.6 mb 0.00 in0.0 mm 0.00 in0.0 mm 0.19 in4.8 mm
10:11 AM 56.5°F13.6°C 51.4°F10.8°C 83% 3.8 mph NW6.1 kmh NW 7.6 mph12.2 kmh 30.05 in1017.6 mb 0.00 in0.0 mm 0.00 in0.0 mm 0.19 in4.8 mm
10:06 AM 56.7°F13.7°C 51.6°F10.9°C 83% 6.0 mph NW9.7 kmh NW 7.6 mph12.2 kmh 30.06 in1017.9 mb 0.00 in0.0 mm 0.00 in0.0 mm 0.19 in4.8 mm
10:00 AM 56.5°F13.6°C 51.4°F10.8°C 83% 3.1 mph NW5.0 kmh NW 7.6 mph12.2 kmh 30.06 in1017.9 mb 0.00 in0.0 mm 0.00 in0.0 mm 0.19 in4.8 mm
09:55 AM 56.5°F13.6°C 51.4°F10.8°C 83% 4.5 mph NW7.2 kmh NW 6.0 mph9.7 kmh 30.05 in1017.6 mb 0.00 in0.0 mm 0.00 in0.0 mm 0.19 in4.8 mm
09:50 AM 56.5°F13.6°C 51.4°F10.8°C 83% 4.5 mph WNW7.2 kmh WNW 7.6 mph12.2 kmh 30.05 in1017.6 mb 0.00 in0.0 mm 0.00 in0.0 mm 0.19 in4.8 mm
09:45 AM 56.5°F13.6°C 51.4°F10.8°C 83% 5.4 mph NW8.7 kmh NW 8.3 mph13.4 kmh 30.06 in1017.9 mb 0.00 in0.0 mm 0.00 in0.0 mm 0.19 in4.8 mm
09:40 AM 56.7°F13.7°C 51.6°F10.9°C 83% 6.0 mph NW9.7 kmh NW 9.2 mph14.8 kmh 30.05 in1017.6 mb 0.00 in0.0 mm 0.00 in0.0 mm 0.19 in4.8 mm
09:35 AM 56.7°F13.7°C 51.6°F10.9°C 83% 4.5 mph NW7.2 kmh NW 6.9 mph11.1 kmh 30.05 in1017.6 mb 0.00 in0.0 mm 0.00 in0.0 mm 0.19 in4.8 mm
09:29 AM 56.7°F13.7°C 51.6°F10.9°C 83% 3.1 mph SW5.0 kmh SW 6.9 mph11.1 kmh 30.05 in1017.6 mb 0.00 in0.0 mm 0.00 in0.0 mm 0.19 in4.8 mm
09:24 AM 56.7°F13.7°C 51.6°F10.9°C 83% 3.8 mph NW6.1 kmh NW 8.3 mph13.4 kmh 30.05 in1017.6 mb 0.00 in0.0 mm 0.00 in0.0 mm 0.19 in4.8 mm
09:19 AM 56.8°F13.8°C 51.8°F11.0°C 83% 3.1 mph NW5.0 kmh NW 7.6 mph12.2 kmh 30.05 in1017.6 mb 0.00 in0.0 mm 0.00 in0.0 mm 0.19 in4.8 mm
09:14 AM 57.0°F13.9°C 52.0°F11.1°C 83% 2.2 mph NW3.5 kmh NW 5.4 mph8.7 kmh 30.05 in1017.6 mb 0.00 in0.0 mm 0.00 in0.0 mm 0.19 in4.8 mm
09:09 AM 57.0°F13.9°C 52.0°F11.1°C 83% 2.2 mph 3.5 kmh 5.4 mph8.7 kmh 30.05 in1017.6 mb 0.00 in0.0 mm 0.00 in0.0 mm 0.19 in4.8 mm
09:04 AM 57.0°F13.9°C 52.0°F11.1°C 83% 3.8 mph NNW6.1 kmh NNW 5.4 mph8.7 kmh 30.05 in1017.6 mb 0.00 in0.0 mm 0.00 in0.0 mm 0.19 in4.8 mm
08:58 AM 57.0°F13.9°C 52.0°F11.1°C 83% 3.1 mph W5.0 kmh W 4.5 mph7.2 kmh 30.06 in1017.9 mb 0.00 in0.0 mm 0.00 in0.0 mm 0.19 in4.8 mm
08:53 AM 57.0°F13.9°C 52.0°F11.1°C 83% 1.6 mph NW2.6 kmh NW 3.8 mph6.1 kmh 30.06 in1017.9 mb 0.00 in0.0 mm 0.00 in0.0 mm 0.19 in4.8 mm
08:48 AM 57.0°F13.9°C 52.0°F11.1°C 83% 2.2 mph 3.5 kmh 4.5 mph7.2 kmh 30.05 in1017.6 mb 0.00 in0.0 mm 0.00 in0.0 mm 0.19 in4.8 mm
08:43 AM 57.2°F14.0°C 51.8°F11.0°C 82% 2.2 mph NW3.5 kmh NW 3.8 mph6.1 kmh 30.05 in1017.6 mb 0.00 in0.0 mm 0.00 in0.0 mm 0.19 in4.8 mm
08:38 AM 57.2°F14.0°C 51.8°F11.0°C 82% Calm Calm 6.0 mph9.7 kmh 30.06 in1017.9 mb 0.00 in0.0 mm 0.00 in0.0 mm 0.19 in4.8 mm
08:33 AM 57.2°F14.0°C 51.8°F11.0°C 82% 1.6 mph NW2.6 kmh NW 5.4 mph8.7 kmh 30.06 in1017.9 mb 0.00 in0.0 mm 0.00 in0.0 mm 0.19 in4.8 mm
08:27 AM 57.4°F14.1°C 52.0°F11.1°C 82% 3.1 mph NW5.0 kmh NW 5.4 mph8.7 kmh 30.06 in1017.9 mb 0.00 in0.0 mm 0.00 in0.0 mm 0.19 in4.8 mm
08:22 AM 57.4°F14.1°C 52.0°F11.1°C 82% 2.2 mph NW3.5 kmh NW 3.8 mph6.1 kmh 30.06 in1017.9 mb 0.00 in0.0 mm 0.00 in0.0 mm 0.19 in4.8 mm
08:17 AM 57.6°F14.2°C 52.2°F11.2°C 82% 2.2 mph WNW3.5 kmh WNW 3.8 mph6.1 kmh 30.06 in1017.9 mb 0.00 in0.0 mm 0.00 in0.0 mm 0.19 in4.8 mm
08:12 AM 57.6°F14.2°C 52.2°F11.2°C 82% 2.2 mph 3.5 kmh 4.5 mph7.2 kmh 30.06 in1017.9 mb 0.00 in0.0 mm 0.00 in0.0 mm 0.19 in4.8 mm
08:07 AM 57.7°F14.3°C 52.3°F11.3°C 82% 1.6 mph NW2.6 kmh NW 6.0 mph9.7 kmh 30.06 in1017.9 mb 0.00 in0.0 mm 0.00 in0.0 mm 0.19 in4.8 mm
08:02 AM 57.7°F14.3°C 52.3°F11.3°C 82% 3.8 mph W6.1 kmh W 7.6 mph12.2 kmh 30.06 in1017.9 mb 0.00 in0.0 mm 0.00 in0.0 mm 0.19 in4.8 mm
07:56 AM 57.9°F14.4°C 52.5°F11.4°C 82% 2.2 mph W3.5 kmh W 7.6 mph12.2 kmh 30.06 in1017.9 mb 0.00 in0.0 mm 0.00 in0.0 mm 0.19 in4.8 mm
07:51 AM 57.9°F14.4°C 52.5°F11.4°C 82% 1.6 mph NW2.6 kmh NW 9.2 mph14.8 kmh 30.06 in1017.9 mb 0.00 in0.0 mm 0.00 in0.0 mm 0.19 in4.8 mm
07:46 AM 58.3°F14.6°C 52.9°F11.6°C 82% 5.4 mph NW8.7 kmh NW 8.3 mph13.4 kmh 30.06 in1017.9 mb 0.00 in0.0 mm 0.00 in0.0 mm 0.19 in4.8 mm
07:41 AM 58.3°F14.6°C 52.9°F11.6°C 82% 3.8 mph 6.1 kmh 6.0 mph9.7 kmh 30.06 in1017.9 mb 0.00 in0.0 mm 0.00 in0.0 mm 0.19 in4.8 mm
07:36 AM 58.3°F14.6°C 52.9°F11.6°C 82% 3.1 mph NW5.0 kmh NW 4.5 mph7.2 kmh 30.05 in1017.6 mb 0.00 in0.0 mm 0.00 in0.0 mm 0.19 in4.8 mm
07:31 AM 58.3°F14.6°C 52.9°F11.6°C 82% 2.2 mph 3.5 kmh 4.5 mph7.2 kmh 30.05 in1017.6 mb 0.00 in0.0 mm 0.00 in0.0 mm 0.19 in4.8 mm
07:25 AM 58.3°F14.6°C 52.9°F11.6°C 82% 2.2 mph NE3.5 kmh NE 5.4 mph8.7 kmh 30.05 in1017.6 mb 0.00 in0.0 mm 0.00 in0.0 mm 0.19 in4.8 mm
07:20 AM 58.3°F14.6°C 52.9°F11.6°C 82% 2.2 mph NE3.5 kmh NE 5.4 mph8.7 kmh 30.06 in1017.9 mb 0.00 in0.0 mm 0.00 in0.0 mm 0.19 in4.8 mm
07:15 AM 58.3°F14.6°C 52.9°F11.6°C 82% 1.6 mph 2.6 kmh 3.8 mph6.1 kmh 30.05 in1017.6 mb 0.00 in0.0 mm 0.00 in0.0 mm 0.19 in4.8 mm
07:10 AM 58.3°F14.6°C 52.9°F11.6°C 82% 2.2 mph 3.5 kmh 4.5 mph7.2 kmh 30.05 in1017.6 mb 0.00 in0.0 mm 0.00 in0.0 mm 0.19 in4.8 mm
07:05 AM 58.3°F14.6°C 52.9°F11.6°C 82% 2.2 mph 3.5 kmh 4.5 mph7.2 kmh 30.05 in1017.6 mb 0.00 in0.0 mm 0.00 in0.0 mm 0.19 in4.8 mm
07:00 AM 58.3°F14.6°C 52.9°F11.6°C 82% 2.2 mph NW3.5 kmh NW 6.0 mph9.7 kmh 30.05 in1017.6 mb 0.00 in0.0 mm 0.00 in0.0 mm 0.19 in4.8 mm
06:54 AM 58.3°F14.6°C 52.9°F11.6°C 82% 3.1 mph 5.0 kmh 4.5 mph7.2 kmh 30.05 in1017.6 mb 0.00 in0.0 mm 0.00 in0.0 mm 0.19 in4.8 mm
06:49 AM 58.3°F14.6°C 52.9°F11.6°C 82% 2.2 mph NNE3.5 kmh NNE 4.5 mph7.2 kmh 30.05 in1017.6 mb 0.00 in0.0 mm 0.00 in0.0 mm 0.19 in4.8 mm
06:44 AM 58.3°F14.6°C 52.9°F11.6°C 82% 2.2 mph 3.5 kmh 5.4 mph8.7 kmh 30.05 in1017.6 mb 0.00 in0.0 mm 0.00 in0.0 mm 0.19 in4.8 mm
06:39 AM 58.3°F14.6°C 52.9°F11.6°C 82% 2.2 mph 3.5 kmh 4.5 mph7.2 kmh 30.04 in1017.3 mb 0.00 in0.0 mm 0.00 in0.0 mm 0.19 in4.8 mm
06:34 AM 58.3°F14.6°C 52.9°F11.6°C 82% 2.2 mph NNW3.5 kmh NNW 4.5 mph7.2 kmh 30.04 in1017.3 mb 0.00 in0.0 mm 0.00 in0.0 mm 0.19 in4.8 mm
06:29 AM 58.5°F14.7°C 53.1°F11.7°C 82% 2.2 mph NW3.5 kmh NW 3.8 mph6.1 kmh 30.04 in1017.3 mb 0.00 in0.0 mm 0.00 in0.0 mm 0.19 in4.8 mm
06:23 AM 58.5°F14.7°C 53.1°F11.7°C 82% 1.6 mph NW2.6 kmh NW 3.1 mph5.0 kmh 30.04 in1017.3 mb 0.01 in0.3 mm 0.00 in0.0 mm 0.19 in4.8 mm
06:18 AM 58.5°F14.7°C 53.1°F11.7°C 82% 0.7 mph NNW1.1 kmh NNW 3.1 mph5.0 kmh 30.04 in1017.3 mb 0.01 in0.3 mm 0.00 in0.0 mm 0.19 in4.8 mm
06:13 AM 58.5°F14.7°C 53.1°F11.7°C 82% 1.6 mph NE2.6 kmh NE 3.1 mph5.0 kmh 30.03 in1016.9 mb 0.01 in0.3 mm 0.00 in0.0 mm 0.19 in4.8 mm
06:08 AM 58.3°F14.6°C 52.9°F11.6°C 82% 1.6 mph E2.6 kmh E 3.1 mph5.0 kmh 30.03 in1016.9 mb 0.01 in0.3 mm 0.00 in0.0 mm 0.19 in4.8 mm
06:03 AM 58.3°F14.6°C 52.9°F11.6°C 82% 2.2 mph NE3.5 kmh NE 3.1 mph5.0 kmh 30.03 in1016.9 mb 0.01 in0.3 mm 0.00 in0.0 mm 0.19 in4.8 mm
05:58 AM 58.3°F14.6°C 52.9°F11.6°C 82% 0.7 mph NE1.1 kmh NE 2.2 mph3.5 kmh 30.03 in1016.9 mb 0.01 in0.3 mm 0.00 in0.0 mm 0.19 in4.8 mm
05:52 AM 58.5°F14.7°C 53.1°F11.7°C 82% 0.7 mph NE1.1 kmh NE 3.1 mph5.0 kmh 30.03 in1016.9 mb 0.01 in0.3 mm 0.00 in0.0 mm 0.19 in4.8 mm
05:47 AM 58.5°F14.7°C 53.1°F11.7°C 82% 1.6 mph NW2.6 kmh NW 3.1 mph5.0 kmh 30.04 in1017.3 mb 0.01 in0.3 mm 0.00 in0.0 mm 0.19 in4.8 mm
05:42 AM 58.5°F14.7°C 53.1°F11.7°C 82% 0.7 mph 1.1 kmh 2.2 mph3.5 kmh 30.05 in1017.6 mb 0.01 in0.3 mm 0.00 in0.0 mm 0.19 in4.8 mm
05:37 AM 58.5°F14.7°C 53.1°F11.7°C 82% 0.7 mph NW1.1 kmh NW 3.1 mph5.0 kmh 30.05 in1017.6 mb 0.01 in0.3 mm 0.00 in0.0 mm 0.19 in4.8 mm
05:32 AM 58.5°F14.7°C 53.1°F11.7°C 82% 2.2 mph NW3.5 kmh NW 3.8 mph6.1 kmh 30.05 in1017.6 mb 0.02 in0.5 mm 0.00 in0.0 mm 0.19 in4.8 mm
05:27 AM 58.5°F14.7°C 53.1°F11.7°C 82% 2.2 mph NW3.5 kmh NW 3.1 mph5.0 kmh 30.05 in1017.6 mb 0.02 in0.5 mm 0.10 in2.5 mm 0.19 in4.8 mm
05:21 AM 58.5°F14.7°C 53.1°F11.7°C 82% 0.7 mph NW1.1 kmh NW 3.8 mph6.1 kmh 30.06 in1017.9 mb 0.01 in0.3 mm 0.00 in0.0 mm 0.18 in4.6 mm
05:16 AM 58.6°F14.8°C 53.2°F11.8°C 82% 2.2 mph NW3.5 kmh NW 3.8 mph6.1 kmh 30.06 in1017.9 mb 0.01 in0.3 mm 0.00 in0.0 mm 0.18 in4.6 mm
05:11 AM 58.6°F14.8°C 53.2°F11.8°C 82% 1.6 mph NW2.6 kmh NW 4.5 mph7.2 kmh 30.06 in1017.9 mb 0.01 in0.3 mm 0.00 in0.0 mm 0.18 in4.6 mm
05:06 AM 58.6°F14.8°C 53.2°F11.8°C 82% 2.2 mph NW3.5 kmh NW 3.8 mph6.1 kmh 30.06 in1017.9 mb 0.02 in0.5 mm 0.00 in0.0 mm 0.18 in4.6 mm
05:01 AM 58.6°F14.8°C 53.2°F11.8°C 82% 0.7 mph NW1.1 kmh NW 5.4 mph8.7 kmh 30.06 in1017.9 mb 0.02 in0.5 mm 0.00 in0.0 mm 0.18 in4.6 mm
04:56 AM 58.6°F14.8°C 53.2°F11.8°C 82% 3.1 mph NW5.0 kmh NW 4.5 mph7.2 kmh 30.06 in1017.9 mb 0.04 in1.0 mm 0.00 in0.0 mm 0.18 in4.6 mm
04:50 AM 58.6°F14.8°C 53.2°F11.8°C 82% 3.1 mph NW5.0 kmh NW 4.5 mph7.2 kmh 30.06 in1017.9 mb 0.04 in1.0 mm 0.00 in0.0 mm 0.18 in4.6 mm
04:45 AM 58.6°F14.8°C 53.2°F11.8°C 82% 2.2 mph NW3.5 kmh NW 4.5 mph7.2 kmh 30.07 in1018.3 mb 0.04 in1.0 mm 0.00 in0.0 mm 0.18 in4.6 mm
04:40 AM 58.6°F14.8°C 53.2°F11.8°C 82% 2.2 mph NW3.5 kmh NW 3.8 mph6.1 kmh 30.07 in1018.3 mb 0.04 in1.0 mm 0.00 in0.0 mm 0.18 in4.6 mm
04:35 AM 58.6°F14.8°C 53.2°F11.8°C 82% 1.6 mph NW2.6 kmh NW 6.0 mph9.7 kmh 30.07 in1018.3 mb 0.05 in1.3 mm 0.12 in3.0 mm 0.18 in4.6 mm
04:30 AM 58.6°F14.8°C 53.2°F11.8°C 82% 3.8 mph NW6.1 kmh NW 4.5 mph7.2 kmh 30.07 in1018.3 mb 0.04 in1.0 mm 0.00 in0.0 mm 0.17 in4.3 mm
04:24 AM 58.6°F14.8°C 53.2°F11.8°C 82% 3.1 mph NW5.0 kmh NW 6.9 mph11.1 kmh 30.07 in1018.3 mb 0.04 in1.0 mm 0.00 in0.0 mm 0.17 in4.3 mm
04:19 AM 58.6°F14.8°C 53.2°F11.8°C 82% 2.2 mph NW3.5 kmh NW 6.0 mph9.7 kmh 30.07 in1018.3 mb 0.04 in1.0 mm 0.00 in0.0 mm 0.17 in4.3 mm
04:14 AM 58.6°F14.8°C 53.2°F11.8°C 82% 3.1 mph NW5.0 kmh NW 9.2 mph14.8 kmh 30.07 in1018.3 mb 0.05 in1.3 mm 0.00 in0.0 mm 0.17 in4.3 mm
04:09 AM 58.6°F14.8°C 53.2°F11.8°C 82% 3.8 mph NW6.1 kmh NW 6.9 mph11.1 kmh 30.08 in1018.6 mb 0.05 in1.3 mm 0.00 in0.0 mm 0.15 in3.8 mm
04:04 AM 58.6°F14.8°C 53.2°F11.8°C 82% 2.2 mph W3.5 kmh W 6.0 mph9.7 kmh 30.08 in1018.6 mb 0.05 in1.3 mm 0.00 in0.0 mm 0.15 in3.8 mm
03:59 AM 58.6°F14.8°C 53.2°F11.8°C 82% 2.2 mph 3.5 kmh 5.4 mph8.7 kmh 30.08 in1018.6 mb 0.05 in1.3 mm 0.00 in0.0 mm 0.15 in3.8 mm
03:53 AM 58.6°F14.8°C 53.2°F11.8°C 82% 3.1 mph NW5.0 kmh NW 4.5 mph7.2 kmh 30.08 in1018.6 mb 0.05 in1.3 mm 0.00 in0.0 mm 0.14 in3.6 mm
03:48 AM 58.8°F14.9°C 53.4°F11.9°C 82% 2.2 mph 3.5 kmh 4.5 mph7.2 kmh 30.07 in1018.3 mb 0.06 in1.5 mm 0.00 in0.0 mm 0.14 in3.6 mm
03:43 AM 58.8°F14.9°C 53.4°F11.9°C 82% 2.2 mph NW3.5 kmh NW 5.4 mph8.7 kmh 30.08 in1018.6 mb 0.06 in1.5 mm 0.12 in3.0 mm 0.14 in3.6 mm
03:38 AM 58.8°F14.9°C 53.4°F11.9°C 82% 2.2 mph 3.5 kmh 4.5 mph7.2 kmh 30.08 in1018.6 mb 0.05 in1.3 mm 0.00 in0.0 mm 0.13 in3.3 mm
03:33 AM 58.8°F14.9°C 53.4°F11.9°C 82% 3.1 mph NW5.0 kmh NW 5.4 mph8.7 kmh 30.08 in1018.6 mb 0.06 in1.5 mm 0.00 in0.0 mm 0.13 in3.3 mm
03:28 AM 58.8°F14.9°C 53.4°F11.9°C 82% 3.8 mph NW6.1 kmh NW 5.4 mph8.7 kmh 30.08 in1018.6 mb 0.06 in1.5 mm 0.00 in0.0 mm 0.13 in3.3 mm
03:22 AM 58.8°F14.9°C 53.4°F11.9°C 82% 2.2 mph W3.5 kmh W 5.4 mph8.7 kmh 30.07 in1018.3 mb 0.07 in1.8 mm 0.12 in3.0 mm 0.13 in3.3 mm
03:17 AM 59.0°F15.0°C 53.2°F11.8°C 81% 3.1 mph NW5.0 kmh NW 3.8 mph6.1 kmh 30.08 in1018.6 mb 0.06 in1.5 mm 0.00 in0.0 mm 0.12 in3.0 mm
03:12 AM 59.0°F15.0°C 53.2°F11.8°C 81% 2.2 mph W3.5 kmh W 5.4 mph8.7 kmh 30.08 in1018.6 mb 0.06 in1.5 mm 0.12 in3.0 mm 0.12 in3.0 mm
03:07 AM 59.0°F15.0°C 53.2°F11.8°C 81% 2.2 mph W3.5 kmh W 4.5 mph7.2 kmh 30.08 in1018.6 mb 0.05 in1.3 mm 0.00 in0.0 mm 0.11 in2.8 mm
03:02 AM 59.0°F15.0°C 53.2°F11.8°C 81% 2.2 mph NW3.5 kmh NW 4.5 mph7.2 kmh 30.08 in1018.6 mb 0.05 in1.3 mm 0.01 in0.3 mm 0.11 in2.8 mm
02:57 AM 59.0°F15.0°C 53.2°F11.8°C 81% 2.2 mph NW3.5 kmh NW 3.8 mph6.1 kmh 30.08 in1018.6 mb 0.04 in1.0 mm 0.00 in0.0 mm 0.09 in2.3 mm
02:51 AM 59.0°F15.0°C 53.2°F11.8°C 81% 2.2 mph NW3.5 kmh NW 3.8 mph6.1 kmh 30.08 in1018.6 mb 0.04 in1.0 mm 0.24 in6.1 mm 0.09 in2.3 mm
02:46 AM 59.0°F15.0°C 53.2°F11.8°C 81% 1.6 mph W2.6 kmh W 3.8 mph6.1 kmh 30.08 in1018.6 mb 0.02 in0.5 mm 0.00 in0.0 mm 0.08 in2.0 mm
02:41 AM 59.0°F15.0°C 53.2°F11.8°C 81% 1.6 mph NW2.6 kmh NW 2.2 mph3.5 kmh 30.08 in1018.6 mb 0.02 in0.5 mm 0.12 in3.0 mm 0.08 in2.0 mm
02:36 AM 59.0°F15.0°C 53.2°F11.8°C 81% Calm Calm 2.2 mph3.5 kmh 30.09 in1019.0 mb 0.01 in0.3 mm 0.00 in0.0 mm 0.07 in1.8 mm
02:31 AM 59.0°F15.0°C 53.2°F11.8°C 81% 0.7 mph NW1.1 kmh NW 2.2 mph3.5 kmh 30.09 in1019.0 mb 0.01 in0.3 mm 0.00 in0.0 mm 0.07 in1.8 mm
02:26 AM 59.0°F15.0°C 53.2°F11.8°C 81% Calm Calm 2.2 mph3.5 kmh 30.09 in1019.0 mb 0.01 in0.3 mm 0.10 in2.5 mm 0.07 in1.8 mm
02:20 AM 59.0°F15.0°C 53.2°F11.8°C 81% Calm Calm 1.6 mph2.6 kmh 30.09 in1019.0 mb 0.00 in0.0 mm 0.00 in0.0 mm 0.06 in1.5 mm
02:15 AM 59.0°F15.0°C 53.2°F11.8°C 81% Calm Calm 0.7 mph1.1 kmh 30.09 in1019.0 mb 0.00 in0.0 mm 0.00 in0.0 mm 0.06 in1.5 mm
02:10 AM 59.0°F15.0°C 53.2°F11.8°C 81% Calm Calm 1.6 mph2.6 kmh 30.09 in1019.0 mb 0.00 in0.0 mm 0.00 in0.0 mm 0.06 in1.5 mm
02:05 AM 59.0°F15.0°C 53.2°F11.8°C 81% 0.7 mph 1.1 kmh -- 30.09 in1019.0 mb 0.00 in0.0 mm 0.00 in0.0 mm 0.06 in1.5 mm
02:01 AM 59.0°F15.0°C 53.2°F11.8°C 81% 0.7 mph 1.1 kmh -- 30.09 in1019.0 mb 0.00 in0.0 mm 0.00 in0.0 mm 0.06 in1.5 mm
01:55 AM 59.0°F15.0°C 53.2°F11.8°C 81% Calm Calm 2.2 mph3.5 kmh 30.09 in1019.0 mb 0.04 in1.0 mm 0.24 in6.1 mm 0.06 in1.5 mm
01:50 AM 59.0°F15.0°C 53.2°F11.8°C 81% 1.6 mph NW2.6 kmh NW 3.1 mph5.0 kmh 30.09 in1019.0 mb 0.02 in0.5 mm 0.00 in0.0 mm 0.05 in1.3 mm
01:45 AM 59.0°F15.0°C 53.2°F11.8°C 81% 0.7 mph 1.1 kmh 3.8 mph6.1 kmh 30.09 in1019.0 mb 0.02 in0.5 mm 0.00 in0.0 mm 0.05 in1.3 mm
01:40 AM 59.0°F15.0°C 53.2°F11.8°C 81% 1.6 mph 2.6 kmh 3.8 mph6.1 kmh 30.10 in1019.3 mb 0.02 in0.5 mm 0.00 in0.0 mm 0.05 in1.3 mm
01:35 AM 59.0°F15.0°C 53.2°F11.8°C 81% 1.6 mph NW2.6 kmh NW 4.5 mph7.2 kmh 30.10 in1019.3 mb 0.02 in0.5 mm 0.00 in0.0 mm 0.05 in1.3 mm
01:30 AM 59.0°F15.0°C 53.2°F11.8°C 81% 0.7 mph NW1.1 kmh NW 3.8 mph6.1 kmh 30.10 in1019.3 mb 0.02 in0.5 mm 0.00 in0.0 mm 0.05 in1.3 mm
01:24 AM 59.0°F15.0°C 53.2°F11.8°C 81% 0.7 mph 1.1 kmh 3.1 mph5.0 kmh 30.10 in1019.3 mb 0.04 in1.0 mm 0.24 in6.1 mm 0.05 in1.3 mm
01:19 AM 59.0°F15.0°C 53.2°F11.8°C 81% 0.7 mph NW1.1 kmh NW 2.2 mph3.5 kmh 30.10 in1019.3 mb 0.02 in0.5 mm 0.00 in0.0 mm 0.04 in1.0 mm
01:14 AM 59.0°F15.0°C 53.2°F11.8°C 81% 0.7 mph NE1.1 kmh NE 3.1 mph5.0 kmh 30.10 in1019.3 mb 0.02 in0.5 mm 0.00 in0.0 mm 0.04 in1.0 mm
01:09 AM 59.0°F15.0°C 53.2°F11.8°C 81% 0.7 mph NW1.1 kmh NW 3.1 mph5.0 kmh 30.10 in1019.3 mb 0.02 in0.5 mm 0.00 in0.0 mm 0.04 in1.0 mm
01:04 AM 59.0°F15.0°C 53.2°F11.8°C 81% 1.6 mph 2.6 kmh 3.1 mph5.0 kmh 30.10 in1019.3 mb 0.04 in1.0 mm 0.02 in0.5 mm 0.04 in1.0 mm
12:58 AM 59.0°F15.0°C 53.2°F11.8°C 81% 2.2 mph NW3.5 kmh NW 3.8 mph6.1 kmh 30.11 in1019.6 mb 0.02 in0.5 mm 0.00 in0.0 mm 0.02 in0.5 mm
12:53 AM 59.0°F15.0°C 53.2°F11.8°C 81% 1.6 mph 2.6 kmh 3.1 mph5.0 kmh 30.11 in1019.6 mb 0.02 in0.5 mm 0.00 in0.0 mm 0.02 in0.5 mm
12:48 AM 59.0°F15.0°C 53.2°F11.8°C 81% 2.2 mph NE3.5 kmh NE 3.1 mph5.0 kmh 30.10 in1019.3 mb 0.02 in0.5 mm 0.00 in0.0 mm 0.02 in0.5 mm
12:43 AM 59.0°F15.0°C 53.2°F11.8°C 81% 1.6 mph NW2.6 kmh NW 4.5 mph7.2 kmh 30.11 in1019.6 mb 0.02 in0.5 mm 0.00 in0.0 mm 0.02 in0.5 mm
12:38 AM 59.0°F15.0°C 53.2°F11.8°C 81% 1.6 mph NE2.6 kmh NE 4.5 mph7.2 kmh 30.11 in1019.6 mb 0.02 in0.5 mm 0.00 in0.0 mm 0.02 in0.5 mm
12:33 AM 59.2°F15.1°C 53.4°F11.9°C 81% 3.8 mph 6.1 kmh 4.5 mph7.2 kmh 30.10 in1019.3 mb 0.02 in0.5 mm 0.00 in0.0 mm 0.02 in0.5 mm
12:27 AM 59.2°F15.1°C 53.4°F11.9°C 81% 2.2 mph NW3.5 kmh NW 4.5 mph7.2 kmh 30.10 in1019.3 mb 0.02 in0.5 mm 0.12 in3.0 mm 0.02 in0.5 mm
12:22 AM 59.2°F15.1°C 53.4°F11.9°C 81% 1.6 mph NW2.6 kmh NW 3.1 mph5.0 kmh 30.10 in1019.3 mb 0.01 in0.3 mm 0.00 in0.0 mm 0.01 in0.3 mm
12:17 AM 59.2°F15.1°C 53.4°F11.9°C 81% 2.2 mph NE3.5 kmh NE 4.5 mph7.2 kmh 30.10 in1019.3 mb 0.01 in0.3 mm 0.00 in0.0 mm 0.01 in0.3 mm
12:12 AM 59.2°F15.1°C 53.4°F11.9°C 81% 0.7 mph NW1.1 kmh NW 4.5 mph7.2 kmh 30.10 in1019.3 mb 0.01 in0.3 mm 0.00 in0.0 mm 0.01 in0.3 mm
12:07 AM 59.4°F15.2°C 53.6°F12.0°C 81% 2.2 mph NW3.5 kmh NW 3.1 mph5.0 kmh 30.10 in1019.3 mb 0.01 in0.3 mm 0.12 in3.0 mm 0.01 in0.3 mm
12:02 AM 59.4°F15.2°C 53.6°F12.0°C 81% 1.6 mph NW2.6 kmh NW 3.8 mph6.1 kmh 30.10 in1019.3 mb 0.00 in0.0 mm 0.00 in0.0 mm 0.00 in0.0 mm